Time;durP1;ratioP1;P1;durP2;ratioP2;P2;SDS_P1;SDS_P2;PMS_P1;PMS_P2;Temp;Humidity;BMP_temperature;BMP_pressure;BME280_temperature;BME280_humidity;BME280_pressure;Samples;Min_cycle;Max_cycle;Signal;HPM_P1;HPM_P2
2023/10/26 00:00:41;;;;;;;2.17;1.67;;;10.30;99.90;;;;;;5090587;28;20137;-79
2023/10/26 00:03:08;;;;;;;1.90;1.52;;;10.30;99.90;;;;;;5100779;28;20138;-80
2023/10/26 00:05:35;;;;;;;1.67;1.23;;;10.20;98.50;;;;;;5103001;28;20052;-79
2023/10/26 00:08:02;;;;;;;1.73;1.30;;;10.20;99.90;;;;;;5104903;28;20090;-80
2023/10/26 00:10:29;;;;;;;1.55;1.15;;;10.30;99.90;;;;;;5088678;28;20504;-80
2023/10/26 00:12:56;;;;;;;1.27;1.10;;;10.30;99.90;;;;;;5093695;28;20130;-80
2023/10/26 00:15:23;;;;;;;1.83;1.42;;;10.30;99.90;;;;;;5102128;28;20122;-80
2023/10/26 00:17:50;;;;;;;1.90;1.50;;;10.30;99.90;;;;;;5087002;28;20516;-80
2023/10/26 00:20:17;;;;;;;1.73;1.40;;;10.30;99.90;;;;;;5078689;28;20146;-80
2023/10/26 00:22:44;;;;;;;1.80;1.35;;;10.30;99.90;;;;;;5091009;28;20043;-80
2023/10/26 00:25:11;;;;;;;1.92;1.45;;;10.30;99.90;;;;;;5090141;28;20484;-80
2023/10/26 00:27:40;;;;;;;1.95;1.55;;;10.30;99.90;;;;;;5085945;28;20152;-80
2023/10/26 00:30:11;;;;;;;2.15;1.60;;;10.40;99.90;;;;;;5096692;28;20047;-80
2023/10/26 00:32:38;;;;;;;1.80;1.50;;;10.30;99.90;;;;;;5102559;28;20489;-80
2023/10/26 00:35:06;;;;;;;1.77;1.30;;;10.40;99.90;;;;;;5094774;28;20042;-80
2023/10/26 00:37:33;;;;;;;1.70;1.25;;;10.40;99.90;;;;;;5097283;28;20466;-80
2023/10/26 00:39:59;;;;;;;2.03;1.15;;;10.40;99.00;;;;;;5104344;28;20561;-80
2023/10/26 00:42:26;;;;;;;1.20;1.00;;;10.40;99.90;;;;;;5105980;28;20051;-80
2023/10/26 00:44:56;;;;;;;1.50;1.08;;;10.50;99.90;;;;;;5105240;28;20059;-80
2023/10/26 00:47:24;;;;;;;1.90;1.40;;;10.50;99.90;;;;;;5102433;28;20044;-80
2023/10/26 00:49:52;;;;;;;1.70;1.05;;;10.50;99.90;;;;;;5094385;28;20545;-79
2023/10/26 00:52:19;;;;;;;1.02;0.90;;;10.50;99.90;;;;;;5103435;28;20147;-80
2023/10/26 00:54:46;;;;;;;1.33;1.00;;;10.50;99.90;;;;;;5093854;28;20050;-80
2023/10/26 00:57:14;;;;;;;1.30;1.20;;;10.50;97.90;;;;;;5088724;28;20409;-80
2023/10/26 00:59:41;;;;;;;2.08;1.20;;;10.50;83.30;;;;;;5078066;28;20242;-80
2023/10/26 01:02:08;;;;;;;1.80;1.30;;;10.50;82.20;;;;;;5084434;28;20052;-79
2023/10/26 01:04:35;;;;;;;1.77;1.30;;;10.50;64.50;;;;;;5083985;28;20103;-80
2023/10/26 01:07:02;;;;;;;1.63;1.27;;;10.50;62.90;;;;;;5093489;28;20063;-80
2023/10/26 01:09:30;;;;;;;1.67;1.27;;;10.50;96.70;;;;;;5086275;28;20043;-80
2023/10/26 01:11:56;;;;;;;1.20;1.00;;;10.50;94.80;;;;;;5080242;28;20051;-80
2023/10/26 01:14:24;;;;;;;1.90;1.33;;;10.60;99.90;;;;;;5083556;28;20086;-80
2023/10/26 01:16:50;;;;;;;1.50;1.20;;;10.60;48.30;;;;;;5086933;28;20536;-80
2023/10/26 01:19:17;;;;;;;1.70;1.20;;;10.60;53.20;;;;;;5086764;28;20109;-80
2023/10/26 01:21:51;;;;;;;1.90;1.48;;;10.60;76.90;;;;;;5099929;28;20057;-80
2023/10/26 01:24:18;;;;;;;2.00;1.60;;;10.60;83.30;;;;;;5082487;28;20382;-80
2023/10/26 01:26:45;;;;;;;1.90;1.50;;;10.60;98.40;;;;;;5079797;28;20131;-80
2023/10/26 01:29:12;;;;;;;2.17;1.60;;;10.60;93.20;;;;;;5093586;28;20051;-80
2023/10/26 01:31:39;;;;;;;2.33;1.98;;;10.60;80.30;;;;;;5089416;28;20059;-79
2023/10/26 01:34:06;;;;;;;1.73;1.38;;;10.60;81.80;;;;;;5094128;27;20493;-79
2023/10/26 01:36:33;;;;;;;2.78;1.80;;;10.60;43.10;;;;;;5095722;28;20458;-79
2023/10/26 01:39:00;;;;;;;1.80;1.45;;;10.60;99.90;;;;;;5094720;28;20117;-80
2023/10/26 01:41:32;;;;;;;1.67;1.30;;;10.60;99.90;;;;;;5076963;28;20062;-79
2023/10/26 01:44:02;;;;;;;1.70;1.30;;;10.60;99.90;;;;;;5081929;28;20158;-79
2023/10/26 01:46:29;;;;;;;1.90;1.60;;;10.60;99.90;;;;;;5099820;27;20520;-80
2023/10/26 01:48:56;;;;;;;1.20;1.05;;;10.70;99.90;;;;;;5082193;28;20725;-79
2023/10/26 01:51:23;;;;;;;1.50;1.00;;;10.70;99.90;;;;;;5069896;28;20040;-79
2023/10/26 01:53:50;;;;;;;2.03;1.42;;;10.70;99.90;;;;;;5088273;28;20054;-79
2023/10/26 01:56:17;;;;;;;2.33;1.52;;;10.70;99.90;;;;;;5088602;28;20508;-80
2023/10/26 01:58:45;;;;;;;1.73;1.27;;;10.80;75.30;;;;;;5078902;28;20078;-79
2023/10/26 02:01:12;;;;;;;1.67;1.52;;;10.80;99.90;;;;;;5098381;28;20051;-79
2023/10/26 02:03:39;;;;;;;3.72;1.55;;;10.80;98.40;;;;;;5087352;28;20044;-79
2023/10/26 02:06:06;;;;;;;1.60;1.05;;;10.80;99.90;;;;;;5088474;28;20079;-78
2023/10/26 02:08:33;;;;;;;1.92;1.20;;;10.80;99.90;;;;;;5101186;28;20517;-79
2023/10/26 02:11:00;;;;;;;1.40;0.90;;;10.80;99.90;;;;;;5067221;28;20040;-79
2023/10/26 02:13:27;;;;;;;1.40;1.00;;;10.90;99.90;;;;;;5087290;28;20483;-79
2023/10/26 02:15:54;;;;;;;1.23;0.98;;;10.80;99.90;;;;;;5087790;28;20051;-79
2023/10/26 02:18:21;;;;;;;1.75;1.20;;;10.90;99.90;;;;;;5069337;28;20044;-80
2023/10/26 02:20:48;;;;;;;1.60;1.00;;;10.90;99.90;;;;;;5103129;27;20040;-79
2023/10/26 02:23:15;;;;;;;1.90;1.38;;;10.90;80.50;;;;;;5086233;28;20454;-79
2023/10/26 02:25:42;;;;;;;1.40;1.10;;;10.90;56.20;;;;;;5093007;28;20075;-80
2023/10/26 02:28:15;;;;;;;2.35;1.58;;;10.80;22.90;;;;;;5084779;28;20040;-79
2023/10/26 02:30:45;;;;;;;1.60;1.30;;;10.80;69.70;;;;;;5086375;28;20052;-80
2023/10/26 02:33:12;;;;;;;2.42;1.00;;;10.80;99.30;;;;;;5091564;28;20059;-79
2023/10/26 02:35:39;;;;;;;1.77;1.20;;;10.80;99.90;;;;;;5092216;28;20862;-79
2023/10/26 02:38:06;;;;;;;1.98;1.33;;;10.80;99.90;;;;;;5098987;28;20040;-79
2023/10/26 02:40:35;;;;;;;1.50;1.10;;;10.80;99.90;;;;;;5082154;28;20161;-79
2023/10/26 02:43:03;;;;;;;1.95;1.42;;;10.80;99.90;;;;;;5084603;28;20048;-80
2023/10/26 02:45:31;;;;;;;1.85;1.42;;;10.80;99.90;;;;;;5103933;28;20065;-80
2023/10/26 02:47:58;;;;;;;1.67;1.10;;;10.80;99.90;;;;;;5087517;28;20040;-79
2023/10/26 02:50:26;;;;;;;1.55;1.20;;;10.80;99.90;;;;;;5089551;28;20432;-79
2023/10/26 02:52:53;;;;;;;1.25;1.10;;;10.80;99.90;;;;;;5085396;28;20050;-79
2023/10/26 02:55:20;;;;;;;1.25;0.93;;;10.80;99.90;;;;;;5104344;28;20508;-82
2023/10/26 02:57:48;;;;;;;1.30;1.00;;;10.80;99.90;;;;;;5098478;28;20067;-80
2023/10/26 03:00:16;;;;;;;1.40;0.93;;;10.80;99.90;;;;;;5105451;28;20226;-80
2023/10/26 03:02:43;;;;;;;1.30;0.95;;;10.80;99.90;;;;;;5103252;28;20527;-80
2023/10/26 03:05:10;;;;;;;1.02;0.90;;;10.90;99.90;;;;;;5087253;28;20054;-79
2023/10/26 03:07:37;;;;;;;0.85;0.68;;;10.90;99.90;;;;;;5103670;28;20062;-80
2023/10/26 03:10:05;;;;;;;1.00;0.90;;;10.90;99.90;;;;;;5100794;28;20101;-80
2023/10/26 03:12:32;;;;;;;1.05;0.77;;;10.90;99.90;;;;;;5083185;28;20465;-80
2023/10/26 03:15:00;;;;;;;1.30;0.90;;;11.00;99.90;;;;;;5100038;28;20055;-80
2023/10/26 03:17:27;;;;;;;1.10;0.93;;;10.90;99.90;;;;;;5098012;28;20047;-79
2023/10/26 03:19:54;;;;;;;1.05;0.77;;;10.90;99.90;;;;;;5074042;28;20060;-79
2023/10/26 03:22:21;;;;;;;0.93;0.60;;;11.00;99.90;;;;;;5099132;28;20055;-79
2023/10/26 03:24:50;;;;;;;0.70;0.70;;;11.00;99.90;;;;;;5091743;28;20151;-79
2023/10/26 03:27:17;;;;;;;0.80;0.60;;;11.00;99.90;;;;;;5087925;28;20051;-79
2023/10/26 03:29:44;;;;;;;0.80;0.60;;;11.00;99.90;;;;;;5091527;28;20812;-79
2023/10/26 03:32:11;;;;;;;1.48;0.70;;;11.00;99.90;;;;;;5095610;28;20112;-79
2023/10/26 03:34:38;;;;;;;0.68;0.68;;;11.00;99.90;;;;;;5095595;28;20385;-81
2023/10/26 03:37:05;;;;;;;0.40;0.40;;;11.10;99.90;;;;;;5084556;28;20128;-81
2023/10/26 03:39:33;;;;;;;1.02;0.70;;;11.10;99.90;;;;;;5092650;28;20116;-81
2023/10/26 03:42:00;;;;;;;0.47;0.40;;;11.10;99.90;;;;;;5114127;27;20090;-81
2023/10/26 03:44:28;;;;;;;0.70;0.47;;;11.10;99.90;;;;;;5097702;28;20989;-81
2023/10/26 03:46:55;;;;;;;0.55;0.55;;;11.20;99.90;;;;;;5090242;28;20104;-81
2023/10/26 03:49:22;;;;;;;0.50;0.50;;;11.20;99.90;;;;;;5089802;28;20526;-81
2023/10/26 03:51:49;;;;;;;0.70;0.40;;;11.30;99.90;;;;;;5088959;28;20039;-81
2023/10/26 03:54:16;;;;;;;0.50;0.50;;;11.30;99.90;;;;;;5101745;28;20099;-81
2023/10/26 03:56:43;;;;;;;0.40;0.40;;;11.30;99.90;;;;;;5103987;28;20040;-81
2023/10/26 03:59:10;;;;;;;0.47;0.40;;;11.40;99.90;;;;;;5103115;28;20055;-80
2023/10/26 04:01:37;;;;;;;0.20;0.20;;;11.40;99.90;;;;;;5104752;28;20043;-80
2023/10/26 04:04:04;;;;;;;0.35;0.35;;;11.40;1.00;;;;;;5102211;28;20528;-80
2023/10/26 04:06:31;;;;;;;0.43;0.40;;;11.50;1.00;;;;;;5081045;28;20112;-80
2023/10/26 04:08:58;;;;;;;0.28;0.28;;;11.50;1.00;;;;;;5089707;28;20044;-79
2023/10/26 04:11:25;;;;;;;0.30;0.30;;;11.50;1.00;;;;;;5106320;28;20044;-79
2023/10/26 04:13:53;;;;;;;0.85;0.50;;;11.60;1.00;;;;;;5100869;28;20082;-78
2023/10/26 04:16:21;;;;;;;0.50;0.47;;;11.60;1.00;;;;;;5107421;28;20493;-79
2023/10/26 04:18:48;;;;;;;0.50;0.50;;;11.60;1.00;;;;;;5071062;28;20392;-79
2023/10/26 04:21:15;;;;;;;0.38;0.38;;;11.60;1.00;;;;;;5105734;28;20130;-79
2023/10/26 04:23:42;;;;;;;0.68;0.68;;;11.60;99.90;;;;;;5104740;28;20094;-79
2023/10/26 04:26:11;;;;;;;0.43;0.40;;;11.60;1.00;;;;;;5100046;28;20044;-79
2023/10/26 04:28:38;;;;;;;0.30;0.30;;;11.60;1.00;;;;;;5088051;28;20346;-80
2023/10/26 04:31:21;;;;;;;0.57;0.40;;;11.60;1.00;;;;;;5081616;28;20079;-79
2023/10/26 04:33:48;;;;;;;0.63;0.30;;;11.60;1.00;;;;;;5088933;28;20067;-80
2023/10/26 04:36:15;;;;;;;0.20;0.20;;;11.60;1.00;;;;;;5082063;28;20363;-80
2023/10/26 04:38:42;;;;;;;0.43;0.30;;;11.60;1.00;;;;;;5095990;28;20513;-80
2023/10/26 04:41:09;;;;;;;0.30;0.30;;;11.60;1.00;;;;;;5087716;28;20139;-79
2023/10/26 04:43:36;;;;;;;0.30;0.30;;;11.60;1.00;;;;;;5106563;28;20468;-80
2023/10/26 04:46:03;;;;;;;0.30;0.30;;;11.70;1.00;;;;;;5106057;28;20054;-79
2023/10/26 04:48:31;;;;;;;0.32;0.32;;;11.70;1.00;;;;;;5080393;28;20075;-79
2023/10/26 04:50:58;;;;;;;0.20;0.20;;;11.70;99.90;;;;;;5068986;28;20062;-79
2023/10/26 04:53:25;;;;;;;0.30;0.30;;;11.70;1.00;;;;;;5104582;28;20160;-80
2023/10/26 04:55:52;;;;;;;0.25;0.25;;;11.70;1.00;;;;;;5097174;28;20545;-79
2023/10/26 04:58:19;;;;;;;0.28;0.28;;;11.80;1.00;;;;;;5072811;28;20059;-78
2023/10/26 05:00:46;;;;;;;0.28;0.28;;;11.80;1.00;;;;;;5095367;28;20055;-80
2023/10/26 05:03:12;;;;;;;0.30;0.30;;;11.80;99.90;;;;;;5090442;28;20134;-79
2023/10/26 05:05:39;;;;;;;0.43;0.40;;;11.80;99.90;;;;;;5081799;28;20138;-80
2023/10/26 05:08:06;;;;;;;0.40;0.40;;;11.80;99.90;;;;;;5097926;28;20090;-80
2023/10/26 05:10:33;;;;;;;0.52;0.30;;;11.80;99.90;;;;;;5098865;28;20040;-81
2023/10/26 05:13:00;;;;;;;0.25;0.20;;;11.80;99.90;;;;;;5080377;28;20048;-80
2023/10/26 05:15:27;;;;;;;0.40;0.40;;;11.80;99.90;;;;;;5096052;28;20108;-80
2023/10/26 05:17:54;;;;;;;0.65;0.30;;;11.80;99.90;;;;;;5094354;28;20060;-80
2023/10/26 05:20:21;;;;;;;0.45;0.40;;;11.80;99.90;;;;;;5096388;28;20055;-80
2023/10/26 05:22:48;;;;;;;0.47;0.35;;;11.80;99.90;;;;;;5096326;28;20044;-80
2023/10/26 05:25:15;;;;;;;0.45;0.30;;;11.80;99.90;;;;;;5091535;28;20063;-80
2023/10/26 05:27:42;;;;;;;0.43;0.40;;;11.80;99.90;;;;;;5090899;28;20105;-80
2023/10/26 05:30:09;;;;;;;0.30;0.30;;;11.80;99.90;;;;;;5084061;28;20143;-79
2023/10/26 05:32:36;;;;;;;0.20;0.20;;;11.80;99.90;;;;;;5087721;28;20142;-78
2023/10/26 05:35:05;;;;;;;0.20;0.20;;;11.80;99.90;;;;;;5090079;28;20066;-79
2023/10/26 05:37:32;;;;;;;0.30;0.20;;;11.80;99.90;;;;;;5074559;28;20101;-78
2023/10/26 05:39:59;;;;;;;0.30;0.30;;;11.70;99.90;;;;;;5086587;28;20124;-80
2023/10/26 05:42:26;;;;;;;0.60;0.52;;;11.80;99.90;;;;;;5061586;28;20044;-79
2023/10/26 05:44:56;;;;;;;0.40;0.40;;;11.80;99.90;;;;;;5098374;28;20532;-80
2023/10/26 05:47:23;;;;;;;0.40;0.40;;;11.80;99.90;;;;;;5081815;28;20825;-80
2023/10/26 05:49:50;;;;;;;0.85;0.60;;;11.80;99.90;;;;;;5075180;28;20465;-80
2023/10/26 05:52:17;;;;;;;0.80;0.60;;;11.80;99.90;;;;;;5097404;28;20652;-81
2023/10/26 05:54:44;;;;;;;0.45;0.38;;;11.80;99.90;;;;;;5073983;28;20476;-80
2023/10/26 05:57:12;;;;;;;0.50;0.47;;;11.80;1.00;;;;;;5086883;28;20039;-81
2023/10/26 05:59:39;;;;;;;0.70;0.52;;;11.80;1.00;;;;;;5088349;28;20055;-80
2023/10/26 06:02:06;;;;;;;0.40;0.40;;;11.80;1.00;;;;;;5085825;28;20044;-82
2023/10/26 06:04:33;;;;;;;0.38;0.35;;;11.80;1.00;;;;;;5088307;28;20137;-80
2023/10/26 06:07:01;;;;;;;0.35;0.32;;;11.80;1.00;;;;;;5096109;28;20104;-81
2023/10/26 06:09:28;;;;;;;0.32;0.30;;;11.80;1.00;;;;;;5097272;28;20044;-82
2023/10/26 06:11:56;;;;;;;0.30;0.30;;;11.80;1.00;;;;;;5085399;28;20036;-79
2023/10/26 06:14:22;;;;;;;0.43;0.40;;;11.80;1.00;;;;;;5091333;28;20107;-78
2023/10/26 06:16:49;;;;;;;0.30;0.30;;;11.80;1.00;;;;;;5082839;28;20731;-78
2023/10/26 06:19:16;;;;;;;0.50;0.50;;;11.80;1.00;;;;;;5106436;27;20052;-78
2023/10/26 06:21:43;;;;;;;0.28;0.28;;;11.80;99.90;;;;;;5099566;28;20156;-79
2023/10/26 06:24:10;;;;;;;0.43;0.35;;;11.80;99.90;;;;;;5094992;28;20530;-79
2023/10/26 06:26:37;;;;;;;0.45;0.28;;;11.80;99.90;;;;;;5082107;28;20071;-79
2023/10/26 06:29:04;;;;;;;0.30;0.30;;;11.80;1.00;;;;;;5095010;28;20120;-78
2023/10/26 06:31:31;;;;;;;0.20;0.20;;;11.90;99.90;;;;;;5090069;28;20047;-78
2023/10/26 06:33:58;;;;;;;0.20;0.20;;;11.90;99.90;;;;;;5073409;28;20556;-79
2023/10/26 06:36:25;;;;;;;0.20;0.20;;;11.80;99.90;;;;;;5084443;28;20165;-78
2023/10/26 06:38:54;;;;;;;0.20;0.20;;;11.90;99.90;;;;;;5086688;28;20092;-78
2023/10/26 06:41:21;;;;;;;0.20;0.20;;;11.90;99.90;;;;;;5089819;28;20151;-78
2023/10/26 06:43:48;;;;;;;0.20;0.20;;;11.90;99.90;;;;;;5093533;28;20232;-78
2023/10/26 06:46:15;;;;;;;0.15;0.15;;;11.90;99.90;;;;;;5097486;28;20048;-78
2023/10/26 06:48:42;;;;;;;0.10;0.10;;;11.90;99.90;;;;;;5089300;28;20554;-78
2023/10/26 06:51:09;;;;;;;0.17;0.17;;;11.90;99.90;;;;;;5087506;28;20081;-78
2023/10/26 06:53:36;;;;;;;0.20;0.20;;;11.90;99.90;;;;;;5082612;28;20051;-78
2023/10/26 06:56:12;;;;;;;0.32;0.28;;;11.90;99.90;;;;;;5095755;28;20050;-78
2023/10/26 06:58:40;;;;;;;0.35;0.25;;;11.80;99.90;;;;;;5097552;28;20048;-78
2023/10/26 07:01:07;;;;;;;0.10;0.10;;;11.90;99.90;;;;;;5101609;28;20120;-78
2023/10/26 07:03:50;;;;;;;0.20;0.20;;;11.90;99.90;;;;;;5102369;28;20120;-78
2023/10/26 07:06:18;;;;;;;0.10;0.10;;;11.90;99.90;;;;;;5083674;28;20070;-78
2023/10/26 07:08:46;;;;;;;0.20;0.20;;;11.80;99.90;;;;;;5086388;28;20048;-79
2023/10/26 07:11:15;;;;;;;0.45;0.30;;;11.80;99.90;;;;;;5101083;28;20044;-78
2023/10/26 07:13:44;;;;;;;0.10;0.10;;;11.90;99.90;;;;;;5098410;28;20117;-78
2023/10/26 07:16:10;;;;;;;0.20;0.20;;;11.90;99.90;;;;;;5097717;28;20092;-78
2023/10/26 07:18:37;;;;;;;0.20;0.20;;;11.90;99.90;;;;;;5101948;28;20043;-78
2023/10/26 07:21:08;;;;;;;0.22;0.22;;;11.90;99.90;;;;;;5108527;28;20135;-78
2023/10/26 07:23:35;;;;;;;0.20;0.20;;;11.90;99.90;;;;;;5104184;28;20100;-78
2023/10/26 07:26:02;;;;;;;0.10;0.10;;;11.90;99.90;;;;;;5082405;28;20055;-78
2023/10/26 07:28:29;;;;;;;0.22;0.20;;;11.90;99.90;;;;;;5084238;28;20127;-77
2023/10/26 07:30:56;;;;;;;0.20;0.20;;;11.90;99.90;;;;;;5097563;28;20075;-76
2023/10/26 07:33:23;;;;;;;0.20;0.20;;;11.90;99.90;;;;;;5088863;28;20055;-78
2023/10/26 07:35:57;;;;;;;0.20;0.20;;;11.90;99.90;;;;;;5108326;28;20097;-77
2023/10/26 07:38:27;;;;;;;0.30;0.30;;;11.80;99.90;;;;;;5089916;28;20047;-77
2023/10/26 07:41:04;;;;;;;0.65;0.30;;;11.80;99.90;;;;;;5101449;28;20054;-77
2023/10/26 07:43:33;;;;;;;0.30;0.30;;;11.80;99.90;;;;;;5093737;28;20063;-77
2023/10/26 07:46:00;;;;;;;0.20;0.20;;;11.90;99.90;;;;;;5108602;28;20266;-77
2023/10/26 07:48:27;;;;;;;0.52;0.35;;;11.90;99.90;;;;;;5108272;28;20170;-77
2023/10/26 07:50:55;;;;;;;0.30;0.30;;;12.00;99.90;;;;;;5108112;28;20139;-77
2023/10/26 07:53:23;;;;;;;0.55;0.20;;;12.00;99.90;;;;;;5098979;28;20047;-77
2023/10/26 07:55:56;;;;;;;0.20;0.20;;;12.10;99.90;;;;;;5088680;28;20052;-77
2023/10/26 07:58:29;;;;;;;0.20;0.20;;;12.20;99.90;;;;;;5090847;28;20055;-77
2023/10/26 08:00:56;;;;;;;0.10;0.10;;;12.30;99.90;;;;;;5106714;28;20123;-77
2023/10/26 08:03:27;;;;;;;0.20;0.20;;;12.30;99.90;;;;;;5090596;28;20048;-77
2023/10/26 08:05:56;;;;;;;0.15;0.13;;;12.40;99.90;;;;;;5106523;28;20699;-77
2023/10/26 08:08:22;;;;;;;0.10;0.10;;;12.40;99.90;;;;;;5090950;28;20075;-77
2023/10/26 08:10:52;;;;;;;0.10;0.10;;;12.40;99.90;;;;;;5107121;28;20047;-78
2023/10/26 08:13:19;;;;;;;0.32;0.30;;;12.30;99.90;;;;;;5094837;28;20044;-77
2023/10/26 08:15:46;;;;;;;0.43;0.22;;;12.30;99.90;;;;;;5095781;28;20058;-79
2023/10/26 08:18:33;;;;;;;0.40;0.30;;;12.20;99.90;;;;;;5100079;27;20367;-79
2023/10/26 08:21:03;;;;;;;0.35;0.30;;;12.30;99.90;;;;;;5077685;28;20811;-78
2023/10/26 08:23:31;;;;;;;0.90;0.45;;;12.30;99.90;;;;;;5074981;28;20084;-77
2023/10/26 08:26:04;;;;;;;0.50;0.50;;;12.40;99.90;;;;;;5081316;28;20047;-78
2023/10/26 08:28:38;;;;;;;0.70;0.40;;;12.50;99.90;;;;;;5096886;28;20051;-79
2023/10/26 08:31:06;;;;;;;0.65;0.35;;;12.60;99.90;;;;;;5087775;28;20052;-77
2023/10/26 08:33:34;;;;;;;0.43;0.30;;;12.70;99.90;;;;;;5087946;28;20083;-77
2023/10/26 08:36:02;;;;;;;0.38;0.38;;;12.70;99.90;;;;;;5104670;28;20124;-77
2023/10/26 08:38:29;;;;;;;0.90;0.32;;;12.80;99.90;;;;;;5107192;28;20056;-77
2023/10/26 08:40:56;;;;;;;0.32;0.30;;;12.80;99.90;;;;;;5101699;28;20062;-77
2023/10/26 08:43:23;;;;;;;0.40;0.32;;;12.80;77.30;;;;;;5088046;28;20051;-77
2023/10/26 08:45:51;;;;;;;0.40;0.40;;;12.80;62.70;;;;;;5107048;28;20048;-77
2023/10/26 08:48:19;;;;;;;0.15;0.15;;;12.80;29.80;;;;;;5103990;28;20051;-77
2023/10/26 08:50:46;;;;;;;0.60;0.40;;;12.80;29.20;;;;;;5102143;28;20048;-78
2023/10/26 08:53:14;;;;;;;0.50;0.20;;;12.80;51.00;;;;;;5101650;28;20074;-77
2023/10/26 08:55:42;;;;;;;0.50;0.30;;;12.90;71.10;;;;;;5103037;28;20039;-77
2023/10/26 08:58:09;;;;;;;0.40;0.30;;;12.90;44.80;;;;;;5082530;28;20109;-79
2023/10/26 09:00:40;;;;;;;0.45;0.32;;;13.00;92.20;;;;;;5101729;28;20079;-76
2023/10/26 09:03:08;;;;;;;0.35;0.30;;;13.00;74.00;;;;;;5103421;28;20065;-76
2023/10/26 09:06:05;;;;;;;0.17;0.15;;;13.10;87.10;;;;;;5102471;28;20131;-76
2023/10/26 09:08:31;;;;;;;0.22;0.20;;;13.20;96.50;;;;;;5094971;28;20136;-76
2023/10/26 09:10:59;;;;;;;0.20;0.20;;;13.30;48.60;;;;;;5100878;28;20047;-77
2023/10/26 09:13:27;;;;;;;0.15;0.15;;;13.30;15.50;;;;;;5103306;28;20051;-76
2023/10/26 09:15:57;;;;;;;0.30;0.22;;;13.50;12.50;;;;;;5103748;28;20097;-76
2023/10/26 09:18:25;;;;;;;0.28;0.20;;;13.50;1.00;;;;;;5092003;28;20044;-77
2023/10/26 09:21:04;;;;;;;0.10;0.10;;;13.60;1.00;;;;;;5105435;28;20062;-77
2023/10/26 09:23:33;;;;;;;0.10;0.10;;;13.70;1.00;;;;;;5104937;28;20330;-77
2023/10/26 09:26:09;;;;;;;0.22;0.22;;;13.70;1.00;;;;;;5091007;28;20048;-76
2023/10/26 09:29:06;;;;;;;0.10;0.10;;;13.80;1.00;;;;;;5082242;28;20219;-79
2023/10/26 09:31:32;;;;;;;0.20;0.20;;;13.80;99.90;;;;;;5085234;28;20457;-76
2023/10/26 09:34:09;;;;;;;0.10;0.10;;;13.80;99.90;;;;;;5083329;28;20473;-76
2023/10/26 09:36:36;;;;;;;0.10;0.10;;;13.80;99.90;;;;;;5073147;28;20131;-77
2023/10/26 09:39:07;;;;;;;0.10;0.10;;;13.90;99.90;;;;;;5075338;28;20455;-76
2023/10/26 09:41:34;;;;;;;0.30;0.20;;;14.00;99.90;;;;;;5103761;28;20131;-76
2023/10/26 09:44:01;;;;;;;0.10;0.10;;;14.00;99.90;;;;;;5070860;28;20534;-77
2023/10/26 09:46:28;;;;;;;0.30;0.20;;;14.00;99.90;;;;;;5098658;28;20493;-77
2023/10/26 09:48:55;;;;;;;0.32;0.32;;;14.10;16.30;;;;;;5095513;28;20114;-76
2023/10/26 09:51:22;;;;;;;0.60;0.20;;;14.00;99.90;;;;;;5104238;28;20130;-76
2023/10/26 09:53:49;;;;;;;0.20;0.17;;;14.00;99.90;;;;;;5076237;28;20116;-76
2023/10/26 09:56:22;;;;;;;0.50;0.10;;;14.00;99.90;;;;;;5100854;28;20044;-76
2023/10/26 09:58:51;;;;;;;0.98;0.40;;;14.00;99.90;;;;;;5101018;28;20055;-76
2023/10/26 10:01:36;;;;;;;0.20;0.20;;;14.10;99.90;;;;;;5082674;28;20051;-77
2023/10/26 10:04:04;;;;;;;0.32;0.20;;;14.10;99.90;;;;;;5087796;28;20136;-76
2023/10/26 10:06:47;;;;;;;0.10;0.10;;;14.20;15.10;;;;;;5058567;28;20557;-76
2023/10/26 10:09:17;;;;;;;0.20;0.20;;;14.30;1.00;;;;;;5090028;28;20637;-76
2023/10/26 10:11:44;;;;;;;0.35;0.25;;;14.30;1.00;;;;;;5101508;28;20104;-76
2023/10/26 10:15:13;;;;;;;0.30;0.20;;;14.30;99.90;;;;;;5080226;28;20138;-76
2023/10/26 10:18:01;;;;;;;0.45;0.38;;;14.40;99.90;;;;;;5097128;28;20097;-77
2023/10/26 10:20:30;;;;;;;1.48;0.55;;;14.40;1.00;;;;;;5086517;28;20100;-77
2023/10/26 10:23:00;;;;;;;0.30;0.30;;;14.40;1.00;;;;;;5080332;28;20055;-76
2023/10/26 10:25:54;;;;;;;0.77;0.30;;;14.50;1.00;;;;;;5076072;28;20115;-77
2023/10/26 10:28:21;;;;;;;0.73;0.30;;;14.70;39.70;;;;;;5075802;28;20532;-76
2023/10/26 10:30:50;;;;;;;0.60;0.30;;;14.80;99.90;;;;;;5095792;28;20089;-77
2023/10/26 10:33:29;;;;;;;1.35;0.30;;;14.80;99.90;;;;;;5083045;28;20174;-77
2023/10/26 10:36:03;;;;;;;0.60;0.45;;;14.80;1.00;;;;;;5083074;28;20135;-77
2023/10/26 10:38:33;;;;;;;0.55;0.30;;;14.70;99.90;;;;;;5070316;28;20058;-79
2023/10/26 10:41:01;;;;;;;0.60;0.40;;;14.60;99.90;;;;;;5071339;28;20058;-81
2023/10/26 10:43:43;;;;;;;1.45;0.52;;;14.60;1.00;;;;;;5093936;28;20059;-72
2023/10/26 10:46:16;;;;;;;1.02;0.50;;;14.60;1.00;;;;;;5086582;28;20409;-82
2023/10/26 10:49:03;;;;;;;;;;;14.70;99.90;;;;;;5096355;28;20063;-75
2023/10/26 10:51:34;;;;;;;0.38;0.38;;;14.80;99.90;;;;;;5095912;28;20010;-79
2023/10/26 10:54:04;;;;;;;0.60;0.50;;;14.80;1.00;;;;;;5096593;28;20050;-75
2023/10/26 10:56:46;;;;;;;0.50;0.50;;;14.90;1.00;;;;;;5097973;27;20040;-75
2023/10/26 10:59:25;;;;;;;0.77;0.60;;;15.00;99.90;;;;;;5099601;28;20059;-75
2023/10/26 11:02:10;;;;;;;1.45;0.70;;;15.00;99.90;;;;;;5090073;28;20132;-77
2023/10/26 11:04:51;;;;;;;0.60;0.52;;;15.10;99.90;;;;;;5094439;28;20058;-78
2023/10/26 11:07:29;;;;;;;1.20;0.40;;;15.30;99.90;;;;;;5098700;27;20054;-78
2023/10/26 11:09:59;;;;;;;0.52;0.40;;;15.40;99.90;;;;;;5093963;27;20530;-77
2023/10/26 11:12:26;;;;;;;0.30;0.30;;;15.50;99.90;;;;;;5103779;28;20615;-79
2023/10/26 11:14:54;;;;;;;1.27;0.50;;;15.60;99.90;;;;;;5091004;28;20058;-77
2023/10/26 11:17:22;;;;;;;0.60;0.40;;;15.70;99.90;;;;;;5087850;28;20066;-78
2023/10/26 11:19:50;;;;;;;1.25;0.50;;;15.90;99.90;;;;;;5092462;27;20051;-78
2023/10/26 11:22:18;;;;;;;4.50;0.90;;;16.20;99.90;;;;;;5099329;27;20123;-79
2023/10/26 11:24:45;;;;;;;2.03;1.05;;;16.30;99.90;;;;;;5080827;28;20085;-79
2023/10/26 11:27:17;;;;;;;1.35;0.85;;;16.30;99.90;;;;;;5103920;28;20051;-78
2023/10/26 11:29:45;;;;;;;2.60;1.10;;;16.30;99.90;;;;;;5092022;28;20113;-78
2023/10/26 11:32:19;;;;;;;2.38;0.80;;;16.10;99.90;;;;;;5097828;28;20059;-78
2023/10/26 11:35:02;;;;;;;1.65;0.70;;;16.40;99.90;;;;;;5101901;27;20125;-77
2023/10/26 11:37:30;;;;;;;1.75;0.60;;;16.40;99.90;;;;;;5096151;28;20051;-78
2023/10/26 11:39:57;;;;;;;1.33;0.50;;;16.50;99.90;;;;;;5091982;27;20105;-78
2023/10/26 11:42:42;;;;;;;1.08;0.50;;;16.40;96.30;;;;;;5093579;28;20063;-78
2023/10/26 11:45:11;;;;;;;1.60;0.52;;;16.20;91.70;;;;;;5100507;27;20039;-79
2023/10/26 11:47:54;;;;;;;1.17;0.50;;;16.10;95.80;;;;;;5094609;28;20453;-79
2023/10/26 11:50:22;;;;;;;0.47;0.47;;;16.00;95.60;;;;;;5087318;28;20075;-80
2023/10/26 11:52:49;;;;;;;0.82;0.63;;;16.00;98.10;;;;;;5101672;28;20533;-79
2023/10/26 11:55:17;;;;;;;0.77;0.77;;;16.20;97.80;;;;;;5085419;28;20054;-79
2023/10/26 11:57:45;;;;;;;0.77;0.50;;;16.40;94.20;;;;;;5061939;28;20051;-79
2023/10/26 12:00:13;;;;;;;0.35;0.30;;;16.60;88.00;;;;;;5100038;27;20066;-80
2023/10/26 12:02:40;;;;;;;0.57;0.38;;;16.50;84.60;;;;;;5102134;28;20503;-80
2023/10/26 12:05:07;;;;;;;0.30;0.30;;;16.40;85.80;;;;;;5098926;28;20090;-79
2023/10/26 12:07:34;;;;;;;1.15;0.50;;;16.40;94.90;;;;;;5095589;28;20052;-81
2023/10/26 12:10:03;;;;;;;0.82;0.40;;;16.50;98.30;;;;;;5062728;28;20064;-79
2023/10/26 12:12:30;;;;;;;0.75;0.40;;;16.80;89.10;;;;;;5084939;28;20047;-78
2023/10/26 12:14:57;;;;;;;0.90;0.68;;;17.30;67.90;;;;;;5088727;28;20040;-80
2023/10/26 12:17:24;;;;;;;2.08;0.52;;;17.70;57.40;;;;;;5085406;28;20047;-79
2023/10/26 12:19:51;;;;;;;0.95;0.30;;;17.80;51.40;;;;;;5094954;28;20087;-79
2023/10/26 12:22:19;;;;;;;0.30;0.30;;;17.70;40.90;;;;;;5089295;28;20516;-80
2023/10/26 12:24:46;;;;;;;0.50;0.40;;;17.50;20.70;;;;;;5083087;28;20059;-79
2023/10/26 12:27:16;;;;;;;0.30;0.30;;;17.50;20.20;;;;;;5100765;28;20070;-79
2023/10/26 12:29:43;;;;;;;0.90;0.38;;;17.40;12.10;;;;;;5100372;28;20362;-79
2023/10/26 12:32:10;;;;;;;2.08;0.73;;;17.30;7.70;;;;;;5099962;28;20039;-79
2023/10/26 12:34:38;;;;;;;0.95;0.40;;;17.10;8.50;;;;;;5077910;28;20137;-79
2023/10/26 12:37:05;;;;;;;1.38;0.65;;;17.00;14.20;;;;;;5088713;28;20040;-81
2023/10/26 12:39:32;;;;;;;0.95;0.40;;;16.90;13.90;;;;;;5098609;28;20457;-80
2023/10/26 12:41:59;;;;;;;0.55;0.40;;;16.80;13.60;;;;;;5073327;28;20469;-81
2023/10/26 12:44:26;;;;;;;0.63;0.32;;;16.70;16.80;;;;;;5072677;28;20047;-81
2023/10/26 12:46:53;;;;;;;0.80;0.43;;;16.80;22.30;;;;;;5077680;28;20051;-80
2023/10/26 12:49:23;;;;;;;1.38;0.50;;;16.80;20.00;;;;;;5082266;28;20055;-80
2023/10/26 12:51:50;;;;;;;0.68;0.60;;;16.80;23.50;;;;;;5082656;28;20525;-81
2023/10/26 12:54:18;;;;;;;0.57;0.40;;;16.90;18.30;;;;;;5091116;28;20065;-81
2023/10/26 12:56:45;;;;;;;0.75;0.52;;;17.20;22.40;;;;;;5081655;28;20498;-79